createdAt,value
2022-10-10T00:01:40.144Z,99727.03
2022-10-10T00:04:15.250Z,99729.94
2022-10-10T00:06:48.868Z,99729.91
2022-10-10T00:09:21.674Z,99731.44
2022-10-10T00:11:55.214Z,99739.34
2022-10-10T00:14:32.394Z,99728.25
2022-10-10T00:17:06.275Z,99725.31
2022-10-10T00:19:40.578Z,99726.38
2022-10-10T00:22:14.138Z,99739.97
2022-10-10T00:24:46.988Z,99745.00
2022-10-10T00:27:20.545Z,99748.59
2022-10-10T00:29:53.467Z,99750.25
2022-10-10T00:32:27.342Z,99758.25
2022-10-10T00:35:01.589Z,99763.44
2022-10-10T00:37:35.120Z,99768.66
2022-10-10T00:40:11.570Z,99779.97
2022-10-10T00:42:44.371Z,99779.88
2022-10-10T00:45:32.210Z,99799.38
2022-10-10T00:48:08.045Z,99803.16
2022-10-10T00:50:47.539Z,99813.00
2022-10-10T00:53:25.309Z,99814.66
2022-10-10T00:55:59.805Z,99818.13
2022-10-10T00:58:33.521Z,99823.50
2022-10-10T01:01:08.384Z,99819.69
2022-10-10T01:03:42.193Z,99833.88
2022-10-10T01:06:17.552Z,99834.47
2022-10-10T01:08:51.602Z,99826.88
2022-10-10T01:11:46.008Z,99823.84
2022-10-10T01:14:33.182Z,99833.34
2022-10-10T01:17:13.824Z,99840.06
2022-10-10T01:20:19.099Z,99843.66
2022-10-10T01:23:24.219Z,99836.16
2022-10-10T01:26:11.152Z,99848.69
2022-10-10T01:28:50.511Z,99853.44
2022-10-10T01:31:27.310Z,99853.25
2022-10-10T01:34:09.905Z,99862.53
2022-10-10T01:36:53.966Z,99865.69
2022-10-10T01:39:34.966Z,99873.50
2022-10-10T01:42:15.623Z,99883.38
2022-10-10T01:44:53.860Z,99884.22
2022-10-10T01:47:27.613Z,99885.75
2022-10-10T01:50:05.868Z,99879.34
2022-10-10T01:52:50.948Z,99888.19
2022-10-10T01:55:40.472Z,99890.13
2022-10-10T02:00:47.274Z,99876.72
2022-10-10T02:03:28.263Z,99882.41
2022-10-10T02:06:05.989Z,99876.75
2022-10-10T02:08:47.288Z,99886.88
2022-10-10T02:11:21.158Z,99894.34
2022-10-10T02:13:59.869Z,99876.19
2022-10-10T02:16:39.602Z,99875.28
2022-10-10T02:19:16.517Z,99879.94
2022-10-10T02:21:52.941Z,99881.44
2022-10-10T02:24:26.854Z,99890.63
2022-10-10T02:27:07.769Z,99899.06
2022-10-10T02:29:45.123Z,99911.44
2022-10-10T02:32:25.772Z,99910.38
2022-10-10T02:35:07.039Z,99918.00
2022-10-10T02:37:43.753Z,99920.97
2022-10-10T02:40:22.431Z,99915.28
2022-10-10T02:42:58.312Z,99910.03
2022-10-10T02:45:33.511Z,99917.09
2022-10-10T02:48:09.122Z,99915.41
2022-10-10T02:50:42.522Z,99916.47
2022-10-10T02:53:15.664Z,99919.41
2022-10-10T02:55:49.429Z,99920.63
2022-10-10T02:58:22.830Z,99935.50
2022-10-10T03:00:56.625Z,99930.88
2022-10-10T03:03:31.784Z,99936.97
2022-10-10T03:06:05.737Z,99937.16
2022-10-10T03:08:40.327Z,99930.25
2022-10-10T03:11:13.930Z,99945.16
2022-10-10T03:13:47.772Z,99946.44
2022-10-10T03:16:21.775Z,99947.47
2022-10-10T03:18:56.365Z,99956.75
2022-10-10T03:21:29.176Z,99957.59
2022-10-10T03:24:02.972Z,99963.31
2022-10-10T03:26:36.713Z,99975.63
2022-10-10T03:29:10.599Z,99974.25
2022-10-10T03:31:43.989Z,99975.91
2022-10-10T03:34:19.388Z,99981.16
2022-10-10T03:36:52.208Z,99990.75
2022-10-10T03:39:25.633Z,99993.69
2022-10-10T03:41:59.248Z,99992.81
2022-10-10T03:44:33.002Z,99999.31
2022-10-10T03:47:06.834Z,100004.56
2022-10-10T03:49:42.411Z,100008.34
2022-10-10T03:52:16.032Z,100002.69
2022-10-10T03:54:49.403Z,100012.31
2022-10-10T03:57:22.894Z,100011.91
2022-10-10T03:59:55.743Z,100034.03
2022-10-10T04:02:29.362Z,100026.72
2022-10-10T04:05:05.163Z,100032.44
2022-10-10T04:07:38.841Z,100040.31
2022-10-10T04:10:12.662Z,100036.00
2022-10-10T04:12:46.262Z,100044.16
2022-10-10T04:15:19.145Z,100048.28
2022-10-10T04:17:52.821Z,100048.81
2022-10-10T04:20:28.194Z,100045.56
2022-10-10T04:23:02.593Z,100051.44
2022-10-10T04:25:38.360Z,100054.34
2022-10-10T04:28:13.621Z,100053.16
2022-10-10T04:30:47.968Z,100057.56
2022-10-10T04:33:21.580Z,100064.38
2022-10-10T04:35:56.730Z,100063.72
2022-10-10T04:38:30.521Z,100073.16
2022-10-10T04:41:04.399Z,100080.75
2022-10-10T04:43:42.250Z,100085.44
2022-10-10T04:46:15.989Z,100087.56
2022-10-10T04:48:49.551Z,100086.09
2022-10-10T04:51:23.857Z,100087.72
2022-10-10T04:53:57.424Z,100088.84
2022-10-10T04:56:31.208Z,100099.13
2022-10-10T04:59:05.820Z,100098.94
2022-10-10T05:01:39.741Z,100105.41
2022-10-10T05:04:13.107Z,100116.94
2022-10-10T05:06:48.223Z,100124.16
2022-10-10T05:09:22.225Z,100125.19
2022-10-10T05:11:55.969Z,100119.38
2022-10-10T05:14:28.783Z,100116.41
2022-10-10T05:17:02.441Z,100122.63
2022-10-10T05:19:36.036Z,100127.91
2022-10-10T05:22:11.278Z,100129.66
2022-10-10T05:24:44.816Z,100126.66
2022-10-10T05:27:18.533Z,100138.53
2022-10-10T05:29:51.381Z,100134.47
2022-10-10T05:32:24.958Z,100147.50
2022-10-10T05:34:57.719Z,100146.34
2022-10-10T05:37:33.440Z,100148.09
2022-10-10T05:40:08.131Z,100145.56
2022-10-10T05:42:41.672Z,100150.88
2022-10-10T05:45:15.247Z,100147.66
2022-10-10T05:47:49.019Z,100155.28
2022-10-10T05:50:30.894Z,100162.88
2022-10-10T05:53:06.834Z,100172.06
2022-10-10T05:55:40.755Z,100161.91
2022-10-10T05:58:14.493Z,100169.38
2022-10-10T06:00:48.961Z,100166.66
2022-10-10T06:03:23.786Z,100173.94
2022-10-10T06:05:56.645Z,100182.75
2022-10-10T06:08:31.273Z,100184.78
2022-10-10T06:11:05.279Z,100183.28
2022-10-10T06:13:39.011Z,100188.69
2022-10-10T06:16:12.405Z,100196.69
2022-10-10T06:18:45.558Z,100204.16
2022-10-10T06:21:18.799Z,100206.81
2022-10-10T06:23:53.460Z,100211.88
2022-10-10T06:26:26.344Z,100221.69
2022-10-10T06:29:00.238Z,100226.22
2022-10-10T06:31:34.005Z,100219.63
2022-10-10T06:34:07.256Z,100231.13
2022-10-10T06:36:40.081Z,100234.53
2022-10-10T06:39:14.348Z,100243.84
2022-10-10T06:41:47.110Z,100241.81
2022-10-10T06:44:20.407Z,100257.22
2022-10-10T06:46:53.814Z,100269.09
2022-10-10T06:49:27.447Z,100268.88
2022-10-10T06:52:01.095Z,100282.25
2022-10-10T06:54:38.070Z,100282.25
2022-10-10T06:57:11.231Z,100287.00
2022-10-10T06:59:44.656Z,100295.19
2022-10-10T07:02:18.284Z,100304.34
2022-10-10T07:04:51.171Z,100296.66
2022-10-10T07:07:24.017Z,100302.06
2022-10-10T07:09:59.264Z,100313.03
2022-10-10T07:12:38.360Z,100315.53
2022-10-10T07:15:16.044Z,100317.53
2022-10-10T07:17:54.241Z,100321.41
2022-10-10T07:20:29.532Z,100321.75
2022-10-10T07:23:03.162Z,100327.75
2022-10-10T07:25:40.240Z,100332.53
2022-10-10T07:28:14.377Z,100331.63
2022-10-10T07:30:48.510Z,100339.28
2022-10-10T07:33:22.173Z,100347.69
2022-10-10T07:35:55.904Z,100341.59
2022-10-10T07:38:28.847Z,100354.88
2022-10-10T07:41:06.640Z,100355.50
2022-10-10T07:43:41.873Z,100357.91
2022-10-10T07:46:17.758Z,100369.81
2022-10-10T07:48:50.565Z,100377.84
2022-10-10T07:51:23.576Z,100380.94
2022-10-10T07:53:57.474Z,100390.59
2022-10-10T07:56:31.689Z,100395.03
2022-10-10T07:59:04.525Z,100402.94
2022-10-10T08:01:37.363Z,100395.31
2022-10-10T08:04:11.131Z,100406.97
2022-10-10T08:06:44.921Z,100410.25
2022-10-10T08:09:18.616Z,100424.47
2022-10-10T08:11:53.582Z,100423.88
2022-10-10T08:14:27.262Z,100424.69
2022-10-10T08:17:01.106Z,100424.19
2022-10-10T08:19:34.791Z,100429.56
2022-10-10T08:22:08.344Z,100436.19
2022-10-10T08:24:42.036Z,100442.44
2022-10-10T08:27:17.863Z,100444.22
2022-10-10T08:29:50.933Z,100440.03
2022-10-10T08:32:23.772Z,100447.13
2022-10-10T08:34:57.409Z,100453.84
2022-10-10T08:37:35.263Z,100456.47
2022-10-10T08:40:14.196Z,100456.50
2022-10-10T08:42:54.256Z,100457.19
2022-10-10T08:45:29.455Z,100469.59
2022-10-10T08:48:07.285Z,100479.88
2022-10-10T08:50:44.331Z,100491.88
2022-10-10T08:53:26.150Z,100506.19
2022-10-10T08:56:00.325Z,100498.34
2022-10-10T08:58:40.038Z,100508.25
2022-10-10T09:01:19.197Z,100512.72
2022-10-10T09:03:54.292Z,100513.97
2022-10-10T09:06:42.574Z,100519.59
2022-10-10T09:09:27.147Z,100521.16
2022-10-10T09:12:15.869Z,100525.00
2022-10-10T09:15:01.136Z,100522.03
2022-10-10T09:17:42.873Z,100530.81
2022-10-10T09:20:30.742Z,100530.53
2022-10-10T09:23:08.555Z,100536.34
2022-10-10T09:25:49.935Z,100537.56
2022-10-10T09:28:35.528Z,100552.03
2022-10-10T09:31:15.096Z,100553.44
2022-10-10T09:33:55.856Z,100560.59
2022-10-10T09:36:34.216Z,100562.81
2022-10-10T09:39:19.089Z,100562.94
2022-10-10T09:41:56.886Z,100558.53
2022-10-10T09:44:30.568Z,100564.97
2022-10-10T09:47:04.873Z,100563.41
2022-10-10T09:49:37.788Z,100575.41
2022-10-10T09:52:24.900Z,100577.47
2022-10-10T09:55:02.293Z,100588.59
2022-10-10T09:57:39.424Z,100591.72
2022-10-10T10:00:33.654Z,100593.69
2022-10-10T10:03:18.953Z,100598.50
2022-10-10T10:05:58.424Z,100593.91
2022-10-10T10:08:33.579Z,100598.00
2022-10-10T10:11:07.252Z,100605.50
2022-10-10T10:13:40.493Z,100608.44
2022-10-10T10:16:15.004Z,100602.84
2022-10-10T10:18:50.113Z,100611.44
2022-10-10T10:21:24.649Z,100616.34
2022-10-10T10:24:01.698Z,100635.59
2022-10-10T10:26:45.559Z,100626.34
2022-10-10T10:29:29.261Z,100633.75
2022-10-10T10:32:09.832Z,100638.31
2022-10-10T10:35:01.237Z,100642.53
2022-10-10T10:37:44.676Z,100641.84
2022-10-10T10:40:29.052Z,100641.88
2022-10-10T10:43:41.778Z,100650.53
2022-10-10T10:46:27.977Z,100654.66
2022-10-10T10:49:03.134Z,100667.50
2022-10-10T10:52:06.229Z,100665.22
2022-10-10T10:54:55.777Z,100688.88
2022-10-10T10:58:04.146Z,100690.91
2022-10-10T11:01:28.369Z,100694.53
2022-10-10T11:05:19.810Z,100701.09
2022-10-10T11:07:20.301Z,100696.41
2022-10-10T11:10:00.378Z,100700.53
2022-10-10T11:12:48.282Z,100715.50
2022-10-10T11:15:37.534Z,100721.91
2022-10-10T11:18:28.012Z,100719.63
2022-10-10T11:21:05.863Z,100724.81
2022-10-10T11:23:46.562Z,100724.91
2022-10-10T11:26:24.964Z,100721.00
2022-10-10T11:29:05.332Z,100720.31
2022-10-10T11:31:42.587Z,100734.06
2022-10-10T11:34:23.624Z,100737.75
2022-10-10T11:37:04.651Z,100741.47
2022-10-10T11:39:45.763Z,100744.22
2022-10-10T11:42:24.382Z,100744.25
2022-10-10T11:45:00.885Z,100756.25
2022-10-10T11:47:39.652Z,100739.03
2022-10-10T11:50:18.969Z,100744.84
2022-10-10T11:53:00.489Z,100741.38
2022-10-10T11:55:39.928Z,100747.94
2022-10-10T11:58:30.043Z,100750.22
2022-10-10T12:01:12.275Z,100760.25
2022-10-10T12:03:45.239Z,100764.47
2022-10-10T12:06:25.227Z,100764.13
2022-10-10T12:09:03.493Z,100772.44
2022-10-10T12:11:42.594Z,100769.81
2022-10-10T12:14:19.481Z,100778.94
2022-10-10T12:16:54.231Z,100774.75
2022-10-10T12:19:30.682Z,100781.75
2022-10-10T12:22:06.302Z,100779.28
2022-10-10T12:25:00.527Z,100782.09
2022-10-10T12:27:46.562Z,100799.91
2022-10-10T12:30:24.836Z,100803.53
2022-10-10T12:32:59.099Z,100812.09
2022-10-10T12:35:37.834Z,100808.53
2022-10-10T12:38:20.870Z,100828.38
2022-10-10T12:41:15.122Z,100825.97
2022-10-10T12:44:15.945Z,100828.31
2022-10-10T12:47:09.366Z,100824.28
2022-10-10T12:49:50.436Z,100821.88
2022-10-10T12:52:27.646Z,100817.56
2022-10-10T12:55:08.462Z,100822.00
2022-10-10T12:57:43.951Z,100830.34
2022-10-10T13:00:21.305Z,100847.16
2022-10-10T13:02:57.960Z,100846.53
2022-10-10T13:05:35.141Z,100851.44
2022-10-10T13:08:14.689Z,100843.00
2022-10-10T13:11:03.712Z,100851.03
2022-10-10T13:13:37.112Z,100842.34
2022-10-10T13:16:16.473Z,100841.50
2022-10-10T13:18:53.288Z,100841.50
2022-10-10T13:21:30.248Z,100843.88
2022-10-10T13:24:06.422Z,100850.09
2022-10-10T13:26:44.732Z,100854.50
2022-10-10T13:29:26.031Z,100868.00
2022-10-10T13:32:04.657Z,100874.69
2022-10-10T13:34:40.367Z,100885.22
2022-10-10T13:37:17.220Z,100884.63
2022-10-10T13:39:52.514Z,100884.69
2022-10-10T13:42:32.561Z,100881.47
2022-10-10T13:45:38.629Z,100891.75
2022-10-10T13:48:38.849Z,100892.78
2022-10-10T13:51:13.761Z,100896.56
2022-10-10T13:53:56.486Z,100899.66
2022-10-10T13:56:31.127Z,100899.22
2022-10-10T13:59:09.438Z,100904.91
2022-10-10T14:01:44.842Z,100898.34
2022-10-10T14:04:25.303Z,100892.50
2022-10-10T14:07:02.045Z,100899.66
2022-10-10T14:09:40.259Z,100905.28
2022-10-10T14:12:20.470Z,100901.00
2022-10-10T14:14:56.145Z,100900.28
2022-10-10T14:17:30.496Z,100908.00
2022-10-10T14:20:12.954Z,100907.72
2022-10-10T14:22:45.807Z,100931.97
2022-10-10T14:25:18.713Z,100933.31
2022-10-10T14:27:51.593Z,100944.06
2022-10-10T14:30:24.541Z,100942.75
2022-10-10T14:32:57.389Z,100938.19
2022-10-10T14:35:31.959Z,100937.72
2022-10-10T14:38:04.841Z,100926.47
2022-10-10T14:40:37.937Z,100921.50
2022-10-10T14:43:10.820Z,100923.78
2022-10-10T14:45:44.611Z,100928.34
2022-10-10T14:48:19.130Z,100932.63
2022-10-10T14:50:53.411Z,100940.28
2022-10-10T14:53:26.246Z,100943.66
2022-10-10T14:55:59.159Z,100943.72
2022-10-10T14:58:32.409Z,100948.09
2022-10-10T15:01:05.895Z,100954.03
2022-10-10T15:03:39.200Z,100946.53
2022-10-10T15:06:13.767Z,100959.63
2022-10-10T15:08:46.664Z,100963.34
2022-10-10T15:11:19.424Z,100964.00
2022-10-10T15:13:53.276Z,100968.88
2022-10-10T15:16:26.230Z,100968.38
2022-10-10T15:18:59.507Z,100973.03
2022-10-10T15:21:34.537Z,100972.25
2022-10-10T15:24:08.808Z,100980.88
2022-10-10T15:26:41.912Z,100986.88
2022-10-10T15:29:15.111Z,100993.38
2022-10-10T15:31:47.961Z,101000.88
2022-10-10T15:34:20.934Z,100998.91
2022-10-10T15:36:55.142Z,101001.78
2022-10-10T15:39:28.812Z,101015.09
2022-10-10T15:42:10.950Z,101018.38
2022-10-10T15:44:49.431Z,101022.19
2022-10-10T15:47:22.668Z,101023.06
2022-10-10T15:49:56.386Z,101023.94
2022-10-10T15:52:30.653Z,101023.47
2022-10-10T15:55:03.936Z,101021.66
2022-10-10T15:57:37.667Z,101030.03
2022-10-10T16:00:12.369Z,101035.78
2022-10-10T16:02:45.226Z,101037.00
2022-10-10T16:05:19.120Z,101036.91
2022-10-10T16:07:55.480Z,101040.88
2022-10-10T16:10:29.391Z,101040.69
2022-10-10T16:13:03.170Z,101042.63
2022-10-10T16:15:37.317Z,101049.47
2022-10-10T16:18:10.167Z,101052.59
2022-10-10T16:20:44.502Z,101057.97
2022-10-10T16:23:19.458Z,101065.03
2022-10-10T16:26:02.592Z,101071.47
2022-10-10T16:28:36.815Z,101068.22
2022-10-10T16:31:13.621Z,101069.13
2022-10-10T16:33:49.305Z,101059.41
2022-10-10T16:36:25.670Z,101059.19
2022-10-10T16:39:01.139Z,101056.50
2022-10-10T16:41:47.560Z,101063.78
2022-10-10T16:44:22.294Z,101068.53
2022-10-10T16:46:56.147Z,101077.91
2022-10-10T16:49:32.218Z,101086.72
2022-10-10T16:52:06.219Z,101094.03
2022-10-10T16:54:40.751Z,101100.50
2022-10-10T16:57:14.908Z,101091.22
2022-10-10T16:59:48.549Z,101090.59
2022-10-10T17:02:25.398Z,101080.28
2022-10-10T17:04:59.136Z,101072.53
2022-10-10T17:07:32.945Z,101080.47
2022-10-10T17:10:09.095Z,101085.94
2022-10-10T17:12:42.777Z,101085.16
2022-10-10T17:15:16.345Z,101084.97
2022-10-10T17:17:49.227Z,101094.09
2022-10-10T17:20:22.794Z,101108.59
2022-10-10T17:22:56.478Z,101119.84
2022-10-10T17:25:31.924Z,101120.84
2022-10-10T17:28:05.858Z,101113.28
2022-10-10T17:30:44.876Z,101101.78
2022-10-10T17:33:20.911Z,101094.31
2022-10-10T17:35:54.569Z,101093.84
2022-10-10T17:38:39.528Z,101094.00
2022-10-10T17:41:16.691Z,101109.13
2022-10-10T17:43:50.828Z,101120.34
2022-10-10T17:46:35.210Z,101123.28
2022-10-10T17:49:12.150Z,101131.25
2022-10-10T17:51:45.012Z,101131.97
2022-10-10T17:54:18.749Z,101134.69
2022-10-10T17:56:53.910Z,101141.38
2022-10-10T17:59:27.633Z,101135.56
2022-10-10T18:02:01.132Z,101139.78
2022-10-10T18:04:34.989Z,101145.78
2022-10-10T18:07:08.207Z,101151.91
2022-10-10T18:09:41.895Z,101156.34
2022-10-10T18:12:16.874Z,101155.16
2022-10-10T18:14:50.447Z,101155.97
2022-10-10T18:17:24.071Z,101174.56
2022-10-10T18:19:57.880Z,101175.41
2022-10-10T18:22:31.440Z,101176.25
2022-10-10T18:25:05.330Z,101178.13
2022-10-10T18:27:40.289Z,101174.03
2022-10-10T18:30:15.017Z,101170.66
2022-10-10T18:32:51.145Z,101175.78
2022-10-10T18:35:25.095Z,101179.50
2022-10-10T18:37:59.144Z,101185.59
2022-10-10T18:40:33.133Z,101191.22
2022-10-10T18:43:08.258Z,101184.38
2022-10-10T18:45:42.113Z,101177.22
2022-10-10T18:48:15.805Z,101176.19
2022-10-10T18:50:49.451Z,101183.53
2022-10-10T18:53:22.287Z,101187.25
2022-10-10T18:56:00.757Z,101188.94
2022-10-10T18:58:37.361Z,101196.53
2022-10-10T19:01:13.330Z,101205.22
2022-10-10T19:03:46.914Z,101206.63
2022-10-10T19:06:21.175Z,101210.53
2022-10-10T19:08:57.399Z,101202.88
2022-10-10T19:11:32.804Z,101206.56
2022-10-10T19:14:09.450Z,101213.75
2022-10-10T19:16:44.206Z,101221.22
2022-10-10T19:19:19.787Z,101219.56
2022-10-10T19:21:53.428Z,101219.94
2022-10-10T19:24:27.024Z,101216.34
2022-10-10T19:27:00.710Z,101226.38
2022-10-10T19:29:35.689Z,101220.69
2022-10-10T19:32:09.306Z,101224.06
2022-10-10T19:34:43.440Z,101231.94
2022-10-10T19:37:17.394Z,101244.97
2022-10-10T19:39:50.906Z,101249.41
2022-10-10T19:42:24.809Z,101244.16
2022-10-10T19:44:59.904Z,101235.66
2022-10-10T19:47:33.515Z,101245.50
2022-10-10T19:50:08.128Z,101246.66
2022-10-10T19:52:41.876Z,101254.94
2022-10-10T19:55:15.151Z,101258.03
2022-10-10T19:57:48.967Z,101261.06
2022-10-10T20:00:23.928Z,101266.22
2022-10-10T20:02:57.560Z,101257.50
2022-10-10T20:05:31.201Z,101263.47
2022-10-10T20:08:04.285Z,101272.84
2022-10-10T20:10:40.998Z,101273.53
2022-10-10T20:13:16.351Z,101283.38
2022-10-10T20:15:51.819Z,101285.94
2022-10-10T20:18:25.615Z,101294.63
2022-10-10T20:20:59.374Z,101289.97
2022-10-10T20:23:32.632Z,101285.41
2022-10-10T20:26:11.482Z,101290.03
2022-10-10T20:28:45.812Z,101295.59
2022-10-10T20:31:23.692Z,101290.16
2022-10-10T20:34:01.070Z,101296.97
2022-10-10T20:36:35.906Z,101296.38
2022-10-10T20:39:11.336Z,101297.38
2022-10-10T20:41:44.930Z,101304.28
2022-10-10T20:44:18.700Z,101309.41
2022-10-10T20:46:53.706Z,101306.84
2022-10-10T20:49:27.514Z,101307.59
2022-10-10T20:52:01.038Z,101309.63
2022-10-10T20:54:35.476Z,101308.72
2022-10-10T20:57:09.196Z,101307.44
2022-10-10T20:59:42.871Z,101314.31
2022-10-10T21:02:19.547Z,101317.09
2022-10-10T21:04:53.397Z,101314.56
2022-10-10T21:07:26.977Z,101321.66
2022-10-10T21:10:00.687Z,101323.00
2022-10-10T21:12:34.337Z,101317.03
2022-10-10T21:15:09.001Z,101322.63
2022-10-10T21:17:44.205Z,101321.06
2022-10-10T21:20:17.930Z,101325.34
2022-10-10T21:22:51.526Z,101319.00
2022-10-10T21:25:25.337Z,101322.25
2022-10-10T21:27:58.805Z,101318.47
2022-10-10T21:31:08.016Z,101329.03
2022-10-10T21:33:41.613Z,101336.28
2022-10-10T21:36:16.486Z,101328.44
2022-10-10T21:38:50.028Z,101337.91
2022-10-10T21:41:23.544Z,101343.75
2022-10-10T21:43:59.244Z,101344.97
2022-10-10T21:46:37.404Z,101348.22
2022-10-10T21:49:13.356Z,101351.78
2022-10-10T21:51:47.062Z,101353.13
2022-10-10T21:54:20.664Z,101355.69
2022-10-10T21:56:54.344Z,101360.63
2022-10-10T21:59:31.858Z,101362.19
2022-10-10T22:02:07.132Z,101363.91
2022-10-10T22:04:40.749Z,101372.75
2022-10-10T22:07:14.426Z,101373.75
2022-10-10T22:09:48.164Z,101377.19
2022-10-10T22:12:22.153Z,101375.47
2022-10-10T22:14:55.766Z,101377.88
2022-10-10T22:17:30.838Z,101380.59
2022-10-10T22:20:05.249Z,101377.72
2022-10-10T22:22:39.955Z,101383.19
2022-10-10T22:25:16.198Z,101387.97
2022-10-10T22:27:49.819Z,101394.94
2022-10-10T22:30:23.448Z,101398.09
2022-10-10T22:32:58.556Z,101393.81
2022-10-10T22:35:32.784Z,101385.13
2022-10-10T22:38:05.889Z,101388.06
2022-10-10T22:40:39.360Z,101390.78
2022-10-10T22:43:12.976Z,101391.88
2022-10-10T22:45:46.722Z,101389.50
2022-10-10T22:48:22.026Z,101398.50
2022-10-10T22:51:03.339Z,101396.28
2022-10-10T22:53:37.282Z,101393.88
2022-10-10T22:56:11.647Z,101385.03
2022-10-10T22:58:45.739Z,101393.06
2022-10-10T23:01:21.119Z,101391.19
2022-10-10T23:04:00.565Z,101392.59
2022-10-10T23:06:34.498Z,101387.84
2022-10-10T23:09:08.650Z,101395.22
2022-10-10T23:14:08.927Z,101385.66
2022-10-10T23:16:42.545Z,101388.22
2022-10-10T23:19:15.428Z,101384.75
2022-10-10T23:21:48.923Z,101399.53
2022-10-10T23:24:22.569Z,101396.75
2022-10-10T23:26:56.150Z,101395.91
2022-10-10T23:29:30.347Z,101393.97
2022-10-10T23:32:04.345Z,101391.78
2022-10-10T23:34:38.129Z,101398.56
2022-10-10T23:37:11.863Z,101397.88
2022-10-10T23:39:45.613Z,101394.03
2022-10-10T23:42:19.402Z,101403.94
2022-10-10T23:44:54.452Z,101406.31
2022-10-10T23:47:28.101Z,101404.81
2022-10-10T23:50:02.576Z,101402.09
2022-10-10T23:52:36.396Z,101409.91
2022-10-10T23:55:10.359Z,101410.06
2022-10-10T23:57:45.007Z,101404.69
